createdAt,value
2023-02-13T00:02:26.836Z,13.98
2023-02-13T00:04:53.934Z,13.38
2023-02-13T00:07:21.076Z,13.07
2023-02-13T00:09:48.163Z,12.77
2023-02-13T00:12:15.320Z,13.18
2023-02-13T00:14:42.571Z,13.32
2023-02-13T00:17:09.740Z,13.95
2023-02-13T00:19:36.827Z,14.70
2023-02-13T00:22:03.955Z,13.60
2023-02-13T00:24:31.090Z,13.27
2023-02-13T00:26:58.191Z,12.15
2023-02-13T00:29:25.300Z,13.77
2023-02-13T00:31:52.495Z,14.63
2023-02-13T00:34:19.740Z,13.80
2023-02-13T00:36:46.847Z,12.65
2023-02-13T00:39:13.949Z,13.15
2023-02-13T00:41:41.034Z,11.80
2023-02-13T00:44:10.082Z,13.07
2023-02-13T00:46:38.572Z,13.85
2023-02-13T00:49:06.088Z,13.75
2023-02-13T00:51:34.817Z,12.77
2023-02-13T00:54:01.974Z,13.90
2023-02-13T00:56:29.342Z,13.63
2023-02-13T00:58:56.496Z,13.57
2023-02-13T01:01:25.521Z,12.18
2023-02-13T01:03:52.681Z,14.00
2023-02-13T01:06:21.698Z,13.75
2023-02-13T01:08:48.863Z,13.95
2023-02-13T01:11:16.234Z,12.32
2023-02-13T01:13:44.452Z,14.20
2023-02-13T01:16:11.722Z,14.00
2023-02-13T01:18:39.399Z,13.75
2023-02-13T01:21:07.456Z,14.30
2023-02-13T01:23:35.776Z,13.75
2023-02-13T01:26:07.149Z,13.68
2023-02-13T01:28:34.772Z,14.32
2023-02-13T01:31:02.678Z,13.25
2023-02-13T01:33:30.377Z,14.30
2023-02-13T01:35:58.216Z,12.80
2023-02-13T01:38:25.418Z,13.15
2023-02-13T01:40:54.833Z,13.18
2023-02-13T01:43:25.634Z,13.60
2023-02-13T01:45:55.785Z,15.13
2023-02-13T01:48:27.126Z,14.88
2023-02-13T01:50:59.767Z,13.57
2023-02-13T01:53:38.587Z,14.15
2023-02-13T01:56:15.764Z,13.02
2023-02-13T01:58:44.557Z,14.93
2023-02-13T02:01:11.866Z,15.32
2023-02-13T02:03:41.736Z,14.57
2023-02-13T02:06:13.983Z,13.63
2023-02-13T02:08:41.196Z,13.70
2023-02-13T02:11:12.401Z,14.27
2023-02-13T02:13:39.608Z,13.40
2023-02-13T02:16:10.237Z,12.98
2023-02-13T02:18:37.395Z,12.98
2023-02-13T02:21:04.643Z,13.45
2023-02-13T02:23:31.747Z,14.05
2023-02-13T02:26:01.523Z,13.30
2023-02-13T02:28:53.600Z,14.82
2023-02-13T02:31:39.894Z,13.80
2023-02-13T02:34:11.833Z,13.60
2023-02-13T02:36:59.611Z,12.90
2023-02-13T02:39:57.103Z,13.13
2023-02-13T02:42:36.088Z,12.43
2023-02-13T02:45:06.464Z,14.45
2023-02-13T02:47:56.789Z,14.18
2023-02-13T02:50:43.671Z,13.25
2023-02-13T02:53:32.417Z,14.63
2023-02-13T02:56:03.315Z,14.20
2023-02-13T02:58:57.767Z,13.02
2023-02-13T03:01:48.469Z,15.10
2023-02-13T03:04:37.759Z,13.25
2023-02-13T03:07:07.500Z,13.25
2023-02-13T03:09:56.762Z,13.20
2023-02-13T03:12:43.682Z,14.05
2023-02-13T03:15:10.864Z,12.38
2023-02-13T03:17:57.337Z,13.25
2023-02-13T03:20:58.891Z,14.05
2023-02-13T03:23:32.100Z,14.77
2023-02-13T03:26:26.088Z,14.35
2023-02-13T03:29:17.182Z,14.18
2023-02-13T03:32:01.437Z,14.13
2023-02-13T03:34:50.683Z,14.68
2023-02-13T03:37:38.033Z,14.55
2023-02-13T03:40:11.212Z,14.75
2023-02-13T03:42:54.900Z,15.88
2023-02-13T03:45:43.461Z,14.73
2023-02-13T03:48:31.236Z,15.27
2023-02-13T03:50:59.678Z,14.32
2023-02-13T03:53:29.948Z,13.98
2023-02-13T03:56:17.518Z,13.15
2023-02-13T03:59:05.649Z,14.00
2023-02-13T04:01:34.997Z,13.85
2023-02-13T04:04:06.614Z,13.90
2023-02-13T04:06:36.859Z,14.52
2023-02-13T04:09:29.818Z,14.45
2023-02-13T04:14:31.000Z,14.57
2023-02-13T04:17:03.391Z,13.43
2023-02-13T04:19:31.206Z,14.20
2023-02-13T04:22:00.012Z,13.70
2023-02-13T04:24:28.037Z,11.82
2023-02-13T04:26:56.851Z,12.75
2023-02-13T04:29:24.919Z,13.63
2023-02-13T04:31:52.594Z,14.13
2023-02-13T04:34:19.941Z,13.15
2023-02-13T04:36:47.240Z,13.77
2023-02-13T04:39:14.561Z,14.13
2023-02-13T04:41:41.743Z,14.02
2023-02-13T04:44:08.863Z,12.93
2023-02-13T04:46:36.232Z,12.63
2023-02-13T04:49:03.342Z,13.98
2023-02-13T04:51:30.550Z,12.55
2023-02-13T04:53:57.693Z,12.93
2023-02-13T04:56:24.771Z,13.43
2023-02-13T04:58:51.876Z,13.60
2023-02-13T05:01:19.235Z,12.65
2023-02-13T05:03:46.632Z,14.40
2023-02-13T05:06:13.922Z,12.93
2023-02-13T05:08:41.097Z,14.50
2023-02-13T05:11:08.300Z,13.27
2023-02-13T05:13:35.439Z,14.65
2023-02-13T05:16:02.658Z,13.65
2023-02-13T05:18:29.876Z,13.40
2023-02-13T05:21:15.642Z,12.43
2023-02-13T05:23:42.778Z,13.32
2023-02-13T05:26:09.993Z,12.60
2023-02-13T05:28:55.809Z,12.30
2023-02-13T05:31:23.048Z,13.23
2023-02-13T05:33:50.157Z,13.73
2023-02-13T05:36:17.334Z,13.63
2023-02-13T05:38:44.470Z,13.55
2023-02-13T05:41:13.582Z,13.63
2023-02-13T05:43:40.885Z,14.57
2023-02-13T05:46:09.316Z,14.30
2023-02-13T05:48:37.058Z,12.63
2023-02-13T05:51:04.301Z,13.23
2023-02-13T05:53:35.104Z,13.55
2023-02-13T05:56:02.619Z,15.40
2023-02-13T05:58:29.817Z,13.15
2023-02-13T06:00:58.637Z,13.18
2023-02-13T06:03:26.523Z,13.27
2023-02-13T06:05:57.214Z,14.00
2023-02-13T06:08:25.032Z,15.10
2023-02-13T06:10:52.120Z,15.15
2023-02-13T06:13:19.611Z,15.10
2023-02-13T06:15:46.886Z,14.05
2023-02-13T06:18:14.032Z,14.38
2023-02-13T06:20:41.233Z,15.35
2023-02-13T06:23:08.385Z,13.95
2023-02-13T06:25:36.358Z,15.02
2023-02-13T06:28:03.892Z,13.98
2023-02-13T06:30:31.515Z,14.77
2023-02-13T06:32:58.720Z,14.65
2023-02-13T06:35:26.187Z,14.90
2023-02-13T06:37:53.327Z,13.63
2023-02-13T06:40:20.604Z,13.43
2023-02-13T06:42:47.750Z,15.23
2023-02-13T06:45:14.912Z,15.20
2023-02-13T06:47:42.899Z,14.95
2023-02-13T06:50:10.531Z,15.25
2023-02-13T06:52:37.757Z,15.40
2023-02-13T06:55:05.225Z,15.68
2023-02-13T06:57:33.704Z,14.95
2023-02-13T07:00:04.924Z,14.50
2023-02-13T07:02:32.775Z,14.43
2023-02-13T07:05:00.066Z,15.15
2023-02-13T07:07:27.247Z,15.50
2023-02-13T07:09:54.317Z,16.08
2023-02-13T07:12:21.754Z,15.48
2023-02-13T07:14:48.906Z,15.35
2023-02-13T07:17:16.034Z,14.60
2023-02-13T07:19:43.184Z,15.55
2023-02-13T07:22:10.339Z,15.15
2023-02-13T07:24:38.552Z,14.50
2023-02-13T07:27:06.273Z,14.82
2023-02-13T07:29:33.410Z,16.55
2023-02-13T07:32:00.682Z,14.73
2023-02-13T07:34:27.857Z,15.35
2023-02-13T07:36:55.232Z,15.80
2023-02-13T07:39:22.402Z,14.70
2023-02-13T07:41:49.541Z,17.20
2023-02-13T07:44:16.923Z,16.80
2023-02-13T07:46:44.111Z,16.95
2023-02-13T07:49:11.325Z,16.10
2023-02-13T07:51:38.440Z,16.73
2023-02-13T07:54:05.577Z,15.00
2023-02-13T07:56:32.734Z,15.68
2023-02-13T07:58:59.880Z,15.70
2023-02-13T08:01:27.028Z,15.57
2023-02-13T08:03:54.435Z,16.63
2023-02-13T08:06:21.908Z,15.68
2023-02-13T08:08:49.005Z,14.88
2023-02-13T08:11:52.196Z,16.58
2023-02-13T08:16:46.383Z,16.88
2023-02-13T08:19:13.584Z,15.77
2023-02-13T08:21:43.539Z,16.13
2023-02-13T08:24:10.753Z,16.67
2023-02-13T08:26:38.015Z,15.63
2023-02-13T08:29:05.726Z,16.63
2023-02-13T08:31:33.225Z,16.98
2023-02-13T08:34:00.365Z,15.95
2023-02-13T08:36:27.654Z,16.83
2023-02-13T08:38:54.780Z,15.73
2023-02-13T08:41:22.178Z,17.55
2023-02-13T08:43:50.015Z,17.10
2023-02-13T08:46:17.721Z,16.73
2023-02-13T08:48:44.966Z,17.33
2023-02-13T08:51:13.066Z,16.90
2023-02-13T08:53:40.507Z,16.27
2023-02-13T08:56:07.882Z,17.98
2023-02-13T08:58:35.155Z,17.38
2023-02-13T09:01:05.434Z,18.30
2023-02-13T09:03:32.553Z,18.60
2023-02-13T09:06:00.684Z,18.60
2023-02-13T09:08:28.240Z,17.67
2023-02-13T09:11:01.163Z,20.05
2023-02-13T09:13:30.141Z,17.10
2023-02-13T09:16:05.478Z,16.70
2023-02-13T09:18:32.978Z,18.17
2023-02-13T09:21:04.269Z,17.63
2023-02-13T09:23:35.168Z,18.30
2023-02-13T09:26:03.016Z,18.17
2023-02-13T09:28:30.942Z,17.45
2023-02-13T09:30:58.372Z,17.65
2023-02-13T09:33:27.361Z,17.88
2023-02-13T09:35:54.749Z,18.23
2023-02-13T09:38:21.977Z,17.33
2023-02-13T09:40:52.922Z,17.42
2023-02-13T09:43:22.723Z,18.98
2023-02-13T09:45:51.564Z,18.05
2023-02-13T09:48:28.900Z,17.38
2023-02-13T09:50:56.402Z,18.33
2023-02-13T09:53:25.006Z,16.63
2023-02-13T09:56:01.487Z,18.13
2023-02-13T09:58:34.425Z,18.45
2023-02-13T10:01:03.781Z,18.10
2023-02-13T10:03:38.330Z,22.40
2023-02-13T10:06:08.601Z,18.92
2023-02-13T10:08:45.966Z,18.33
2023-02-13T10:11:32.162Z,17.67
2023-02-13T10:14:15.598Z,17.35
2023-02-13T10:16:42.705Z,17.70
2023-02-13T10:19:28.620Z,18.08
2023-02-13T10:21:58.997Z,17.95
2023-02-13T10:24:30.000Z,18.55
2023-02-13T10:26:57.543Z,17.48
2023-02-13T10:29:45.238Z,19.02
2023-02-13T10:32:14.804Z,18.15
2023-02-13T10:34:44.275Z,18.42
2023-02-13T10:37:16.331Z,24.92
2023-02-13T10:39:45.207Z,18.90
2023-02-13T10:42:24.387Z,19.35
2023-02-13T10:45:04.175Z,19.02
2023-02-13T10:47:45.558Z,18.67
2023-02-13T10:50:18.353Z,18.08
2023-02-13T10:53:03.639Z,19.05
2023-02-13T10:55:30.765Z,17.77
2023-02-13T10:58:12.885Z,18.45
2023-02-13T11:00:43.310Z,18.52
2023-02-13T11:03:19.018Z,18.65
2023-02-13T11:05:46.142Z,17.83
2023-02-13T11:08:17.010Z,16.98
2023-02-13T11:10:44.088Z,17.05
2023-02-13T11:13:19.036Z,17.45
2023-02-13T11:16:04.865Z,15.77
2023-02-13T11:18:34.340Z,16.15
2023-02-13T11:21:14.968Z,17.25
2023-02-13T11:23:44.457Z,16.63
2023-02-13T11:26:15.071Z,16.77
2023-02-13T11:28:55.549Z,17.20
2023-02-13T11:31:33.311Z,16.42
2023-02-13T11:34:18.337Z,17.33
2023-02-13T11:36:45.487Z,16.20
2023-02-13T11:39:20.468Z,15.30
2023-02-13T11:41:50.722Z,14.15
2023-02-13T11:44:20.688Z,15.52
2023-02-13T11:46:48.844Z,14.35
2023-02-13T11:49:19.608Z,15.07
2023-02-13T11:51:48.381Z,14.77
2023-02-13T11:54:38.469Z,12.50
2023-02-13T11:57:17.976Z,12.02
2023-02-13T11:59:46.224Z,12.88
2023-02-13T12:02:13.620Z,13.45
2023-02-13T12:04:41.203Z,12.80
2023-02-13T12:07:17.383Z,13.95
2023-02-13T12:09:45.925Z,12.43
2023-02-13T12:12:17.755Z,13.45
2023-02-13T12:14:45.888Z,13.60
2023-02-13T12:17:31.210Z,12.48
2023-02-13T12:19:59.895Z,13.52
2023-02-13T12:22:28.560Z,13.35
2023-02-13T12:25:14.292Z,13.57
2023-02-13T12:27:42.959Z,13.00
2023-02-13T12:30:13.070Z,13.50
2023-02-13T12:32:49.504Z,13.70
2023-02-13T12:35:30.074Z,13.27
2023-02-13T12:38:15.688Z,14.80
2023-02-13T12:40:54.023Z,15.07
2023-02-13T12:43:21.142Z,13.95
2023-02-13T12:46:11.730Z,15.07
2023-02-13T12:48:51.893Z,13.98
2023-02-13T12:51:24.991Z,15.55
2023-02-13T12:54:04.338Z,15.88
2023-02-13T12:56:31.891Z,15.15
2023-02-13T12:59:09.109Z,15.32
2023-02-13T13:01:44.628Z,15.63
2023-02-13T13:04:20.764Z,15.90
2023-02-13T13:07:00.357Z,15.55
2023-02-13T13:10:02.903Z,16.13
2023-02-13T13:12:42.278Z,14.40
2023-02-13T13:15:17.003Z,16.08
2023-02-13T13:17:56.094Z,15.32
2023-02-13T13:20:23.180Z,16.35
2023-02-13T13:22:52.503Z,15.88
2023-02-13T13:25:24.470Z,15.32
2023-02-13T13:27:54.310Z,14.73
2023-02-13T13:30:27.860Z,16.35
2023-02-13T13:33:08.438Z,16.00
2023-02-13T13:35:36.602Z,14.90
2023-02-13T13:38:15.111Z,14.88
2023-02-13T13:41:02.385Z,15.15
2023-02-13T13:44:01.692Z,16.25
2023-02-13T13:46:31.512Z,15.20
2023-02-13T13:49:07.955Z,15.80
2023-02-13T13:51:37.401Z,15.57
2023-02-13T13:54:07.323Z,15.48
2023-02-13T13:56:53.416Z,15.68
2023-02-13T13:59:40.648Z,14.98
2023-02-13T14:02:19.867Z,15.85
2023-02-13T14:05:05.511Z,15.02
2023-02-13T14:07:37.486Z,16.17
2023-02-13T14:10:07.614Z,15.77
2023-02-13T14:12:36.970Z,16.10
2023-02-13T14:15:04.478Z,15.68
2023-02-13T14:17:46.734Z,16.80
2023-02-13T14:20:22.064Z,15.88
2023-02-13T14:22:49.410Z,16.52
2023-02-13T14:25:22.989Z,17.15
2023-02-13T14:28:00.726Z,16.63
2023-02-13T14:30:30.462Z,16.67
2023-02-13T14:32:58.357Z,16.35
2023-02-13T14:35:28.369Z,17.05
2023-02-13T14:38:07.901Z,17.60
2023-02-13T14:40:48.110Z,18.80
2023-02-13T14:43:21.349Z,18.15
2023-02-13T14:45:52.276Z,17.42
2023-02-13T14:48:20.942Z,18.00
2023-02-13T14:50:52.067Z,18.15
2023-02-13T14:53:27.515Z,19.50
2023-02-13T14:55:57.911Z,20.60
2023-02-13T14:58:33.504Z,21.20
2023-02-13T15:01:05.932Z,21.17
2023-02-13T15:03:45.070Z,21.55
2023-02-13T15:06:20.526Z,20.67
2023-02-13T15:08:49.449Z,21.20
2023-02-13T15:11:35.865Z,22.20
2023-02-13T15:14:21.058Z,21.73
2023-02-13T15:16:53.445Z,20.85
2023-02-13T15:19:21.848Z,20.63
2023-02-13T15:21:53.519Z,20.35
2023-02-13T15:24:22.880Z,20.00
2023-02-13T15:26:51.480Z,19.15
2023-02-13T15:29:29.296Z,19.02
2023-02-13T15:31:59.405Z,17.23
2023-02-13T15:34:32.184Z,17.30
2023-02-13T15:36:59.381Z,18.08
2023-02-13T15:39:31.217Z,18.25
2023-02-13T15:42:00.322Z,18.55
2023-02-13T15:44:29.600Z,18.73
2023-02-13T15:47:01.448Z,16.88
2023-02-13T15:49:31.741Z,17.58
2023-02-13T15:52:03.860Z,17.10
2023-02-13T15:54:35.036Z,19.60
2023-02-13T15:57:04.753Z,17.50
2023-02-13T15:59:34.852Z,17.88
2023-02-13T16:02:02.854Z,18.15
2023-02-13T16:04:30.412Z,18.08
2023-02-13T16:06:58.828Z,17.15
2023-02-13T16:09:35.601Z,17.52
2023-02-13T16:12:21.610Z,17.52
2023-02-13T16:14:56.763Z,17.75
2023-02-13T16:17:29.170Z,17.65
2023-02-13T16:20:07.079Z,16.73
2023-02-13T16:22:44.988Z,16.83
2023-02-13T16:25:30.981Z,17.95
2023-02-13T16:27:59.545Z,17.00
2023-02-13T16:30:26.663Z,17.05
2023-02-13T16:33:09.217Z,16.80
2023-02-13T16:35:40.797Z,17.00
2023-02-13T16:38:27.139Z,16.95
2023-02-13T16:40:58.264Z,17.23
2023-02-13T16:43:35.930Z,16.73
2023-02-13T16:46:15.350Z,17.08
2023-02-13T16:48:43.784Z,16.67
2023-02-13T16:51:11.113Z,17.45
2023-02-13T16:53:38.487Z,16.05
2023-02-13T16:56:09.650Z,16.88
2023-02-13T16:58:36.988Z,15.20
2023-02-13T17:01:05.319Z,17.42
2023-02-13T17:03:32.903Z,15.73
2023-02-13T17:06:03.289Z,17.92
2023-02-13T17:08:31.921Z,20.23
2023-02-13T17:11:03.918Z,19.83
2023-02-13T17:13:31.383Z,18.77
2023-02-13T17:16:00.013Z,17.05
2023-02-13T17:18:27.578Z,16.67
2023-02-13T17:20:55.099Z,16.67
2023-02-13T17:23:24.213Z,17.60
2023-02-13T17:25:52.584Z,17.27
2023-02-13T17:28:24.298Z,16.15
2023-02-13T17:30:52.511Z,16.40
2023-02-13T17:33:24.376Z,15.70
2023-02-13T17:35:51.580Z,15.20
2023-02-13T17:38:18.704Z,15.75
2023-02-13T17:40:45.970Z,15.93
2023-02-13T17:43:13.695Z,15.98
2023-02-13T17:45:40.927Z,15.25
2023-02-13T17:48:08.074Z,16.17
2023-02-13T17:50:36.034Z,17.27
2023-02-13T17:53:04.739Z,16.80
2023-02-13T17:55:33.343Z,15.98
2023-02-13T17:58:00.850Z,17.33
2023-02-13T18:00:29.483Z,18.10
2023-02-13T18:02:56.881Z,16.95
2023-02-13T18:05:24.117Z,16.08
2023-02-13T18:07:51.235Z,17.33
2023-02-13T18:10:20.102Z,15.63
2023-02-13T18:12:47.943Z,16.02
2023-02-13T18:15:15.502Z,17.08
2023-02-13T18:17:42.671Z,15.32
2023-02-13T18:20:12.228Z,16.10
2023-02-13T18:22:39.434Z,15.98
2023-02-13T18:25:06.977Z,15.57
2023-02-13T18:27:34.076Z,16.17
2023-02-13T18:30:01.404Z,15.52
2023-02-13T18:32:28.842Z,15.55
2023-02-13T18:34:55.977Z,17.20
2023-02-13T18:37:23.102Z,16.60
2023-02-13T18:39:50.271Z,16.65
2023-02-13T18:42:18.673Z,16.10
2023-02-13T18:44:45.796Z,17.23
2023-02-13T18:47:12.983Z,17.42
2023-02-13T18:49:40.392Z,17.23
2023-02-13T18:52:07.486Z,17.80
2023-02-13T18:54:34.681Z,15.77
2023-02-13T18:57:01.774Z,16.05
2023-02-13T18:59:29.067Z,15.48
2023-02-13T19:01:56.148Z,15.98
2023-02-13T19:04:23.587Z,16.48
2023-02-13T19:06:50.787Z,16.27
2023-02-13T19:09:17.881Z,15.05
2023-02-13T19:11:45.038Z,15.10
2023-02-13T19:14:13.161Z,16.73
2023-02-13T19:16:40.461Z,16.10
2023-02-13T19:19:08.889Z,15.13
2023-02-13T19:21:37.529Z,15.48
2023-02-13T19:24:06.170Z,16.08
2023-02-13T19:26:33.250Z,15.63
2023-02-13T19:29:00.416Z,15.10
2023-02-13T19:31:28.537Z,15.82
2023-02-13T19:33:56.244Z,15.43
2023-02-13T19:36:24.598Z,15.65
2023-02-13T19:38:56.053Z,15.15
2023-02-13T19:41:23.471Z,15.60
2023-02-13T19:43:51.324Z,16.02
2023-02-13T19:46:20.151Z,17.40
2023-02-13T19:48:47.419Z,15.23
2023-02-13T19:51:15.410Z,16.92
2023-02-13T19:53:42.928Z,15.27
2023-02-13T19:56:10.414Z,15.15
2023-02-13T19:58:38.067Z,15.27
2023-02-13T20:01:16.237Z,15.40
2023-02-13T20:03:43.777Z,15.73
2023-02-13T20:06:12.463Z,17.63
2023-02-13T20:08:41.929Z,15.77
2023-02-13T20:11:10.622Z,15.27
2023-02-13T20:13:38.092Z,16.58
2023-02-13T20:16:09.423Z,16.25
2023-02-13T20:18:37.141Z,15.98
2023-02-13T20:21:07.719Z,16.25
2023-02-13T20:23:35.215Z,16.73
2023-02-13T20:26:06.047Z,16.40
2023-02-13T20:28:33.188Z,17.17
2023-02-13T20:31:00.975Z,16.92
2023-02-13T20:33:28.371Z,16.25
2023-02-13T20:35:55.936Z,15.75
2023-02-13T20:38:23.054Z,16.00
2023-02-13T20:40:50.202Z,17.27
2023-02-13T20:43:17.337Z,15.95
2023-02-13T20:45:44.529Z,16.10
2023-02-13T20:48:11.685Z,16.52
2023-02-13T20:50:38.868Z,16.27
2023-02-13T20:53:05.948Z,15.85
2023-02-13T20:55:33.101Z,16.08
2023-02-13T20:58:00.406Z,15.20
2023-02-13T21:00:27.574Z,14.52
2023-02-13T21:02:54.767Z,15.30
2023-02-13T21:05:21.944Z,15.18
2023-02-13T21:07:49.088Z,16.00
2023-02-13T21:10:16.276Z,16.17
2023-02-13T21:12:43.412Z,16.15
2023-02-13T21:15:10.607Z,16.52
2023-02-13T21:17:37.752Z,24.25
2023-02-13T21:20:05.724Z,18.63
2023-02-13T21:22:32.901Z,15.82
2023-02-13T21:25:00.086Z,16.50
2023-02-13T21:27:28.244Z,15.43
2023-02-13T21:29:55.656Z,16.50
2023-02-13T21:32:22.966Z,16.17
2023-02-13T21:34:50.111Z,16.88
2023-02-13T21:37:17.316Z,16.45
2023-02-13T21:39:44.444Z,16.45
2023-02-13T21:42:11.589Z,16.92
2023-02-13T21:44:38.677Z,15.75
2023-02-13T21:47:07.164Z,17.00
2023-02-13T21:49:35.756Z,16.05
2023-02-13T21:52:02.832Z,15.63
2023-02-13T21:54:29.992Z,15.43
2023-02-13T21:56:57.144Z,16.27
2023-02-13T21:59:24.317Z,15.50
2023-02-13T22:01:52.233Z,17.33
2023-02-13T22:04:19.590Z,15.07
2023-02-13T22:06:51.040Z,16.83
2023-02-13T22:09:19.249Z,16.73
2023-02-13T22:11:46.353Z,15.45
2023-02-13T22:14:17.667Z,16.67
2023-02-13T22:16:45.697Z,16.27
2023-02-13T22:19:13.968Z,15.95
2023-02-13T22:21:41.106Z,17.45
2023-02-13T22:24:08.758Z,16.10
2023-02-13T22:26:37.593Z,16.02
2023-02-13T22:29:08.952Z,16.75
2023-02-13T22:31:36.480Z,15.52
2023-02-13T22:34:05.282Z,17.00
2023-02-13T22:36:33.748Z,17.38
2023-02-13T22:39:00.811Z,16.60
2023-02-13T22:41:28.260Z,17.00
2023-02-13T22:43:55.540Z,17.30
2023-02-13T22:46:24.191Z,16.63
2023-02-13T22:48:54.650Z,16.73
2023-02-13T22:51:26.035Z,16.02
2023-02-13T22:53:54.539Z,15.80
2023-02-13T22:56:21.985Z,16.02
2023-02-13T22:58:49.100Z,15.85
2023-02-13T23:01:18.009Z,15.43
2023-02-13T23:03:45.561Z,15.10
2023-02-13T23:06:13.443Z,13.82
2023-02-13T23:08:40.973Z,15.20
2023-02-13T23:11:27.977Z,13.63
2023-02-13T23:13:55.340Z,14.55
2023-02-13T23:16:22.543Z,13.88
2023-02-13T23:18:53.115Z,15.10
2023-02-13T23:21:20.409Z,15.18
2023-02-13T23:23:47.961Z,14.73
2023-02-13T23:26:15.647Z,15.18
2023-02-13T23:28:42.777Z,14.50
2023-02-13T23:31:10.001Z,14.18
2023-02-13T23:33:37.209Z,15.48
2023-02-13T23:36:04.440Z,14.15
2023-02-13T23:38:31.530Z,14.55
2023-02-13T23:41:08.947Z,14.57
2023-02-13T23:43:36.077Z,10.70
2023-02-13T23:46:04.353Z,9.60
2023-02-13T23:48:31.786Z,8.50
2023-02-13T23:50:59.274Z,8.15
2023-02-13T23:53:26.913Z,8.98
2023-02-13T23:55:55.006Z,9.25
2023-02-13T23:58:22.229Z,9.70
